Time;durP1;ratioP1;P1;durP2;ratioP2;P2;SDS_P1;SDS_P2;PMS_P1;PMS_P2;Temp;Humidity;BMP_temperature;BMP_pressure;BME280_temperature;BME280_humidity;BME280_pressure;Samples;Min_cycle;Max_cycle;Signal;HPM_P1;HPM_P2
2023/06/19 00:00:26;;;;;;;22.25;14.23;;;;;;;;;;6254299;28;20057;-56
2023/06/19 00:03:46;;;;;;;24.10;14.23;;;;;;;;;;6254766;28;20043;-57
2023/06/19 00:06:48;;;;;;;24.58;14.52;;;;;;;;;;6254275;28;20041;-58
2023/06/19 00:09:48;;;;;;;22.57;13.93;;;;;;;;;;6254531;28;20159;-58
2023/06/19 00:12:49;;;;;;;25.00;14.38;;;;;;;;;;6251696;28;20060;-59
2023/06/19 00:15:50;;;;;;;25.08;14.57;;;;;;;;;;6255027;28;20651;-59
2023/06/19 00:18:55;;;;;;;24.35;14.02;;;;;;;;;;6258574;28;20049;-58
2023/06/19 00:21:57;;;;;;;25.65;15.00;;;;;;;;;;6254597;28;20052;-58
2023/06/19 00:24:57;;;;;;;22.63;14.02;;;;;;;;;;6255925;28;20059;-58
2023/06/19 00:27:58;;;;;;;27.13;15.65;;;;;;;;;;6258651;28;20045;-60
2023/06/19 00:30:59;;;;;;;26.77;15.23;;;;;;;;;;6259943;28;20576;-59
2023/06/19 00:33:59;;;;;;;26.75;15.38;;;;;;;;;;6262235;28;20040;-57
2023/06/19 00:37:00;;;;;;;26.90;14.77;;;;;;;;;;6258684;28;20492;-59
2023/06/19 00:40:00;;;;;;;23.45;14.80;;;;;;;;;;6257788;28;20041;-59
2023/06/19 00:43:02;;;;;;;27.02;15.38;;;;;;;;;;6255936;28;20171;-58
2023/06/19 00:46:03;;;;;;;23.35;15.27;;;;;;;;;;6239791;28;20072;-58
2023/06/19 00:49:04;;;;;;;25.35;15.30;;;;;;;;;;6254706;28;20049;-60
2023/06/19 00:52:05;;;;;;;28.88;15.32;;;;;;;;;;6261652;28;20451;-58
2023/06/19 00:55:07;;;;;;;28.07;16.27;;;;;;;;;;6257981;28;20075;-60
2023/06/19 00:58:08;;;;;;;26.10;15.13;;;;;;;;;;6257617;28;20443;-60
2023/06/19 01:01:09;;;;;;;22.75;15.02;;;;;;;;;;6256105;28;20045;-59
2023/06/19 01:04:09;;;;;;;27.58;14.85;;;;;;;;;;6255483;28;20041;-59
2023/06/19 01:07:14;;;;;;;27.85;15.10;;;;;;;;;;6260719;28;20132;-59
2023/06/19 01:10:20;;;;;;;25.17;15.30;;;;;;;;;;6260138;28;20044;-59
2023/06/19 01:13:30;;;;;;;27.65;15.95;;;;;;;;;;6257226;28;20473;-60
2023/06/19 01:16:31;;;;;;;27.63;16.38;;;;;;;;;;6255369;28;20033;-59
2023/06/19 01:19:32;;;;;;;25.92;15.98;;;;;;;;;;6257726;28;20545;-59
2023/06/19 01:22:33;;;;;;;26.95;15.85;;;;;;;;;;6256603;28;20044;-59
2023/06/19 01:25:34;;;;;;;25.42;15.50;;;;;;;;;;6256491;28;20515;-59
2023/06/19 01:28:40;;;;;;;25.05;14.73;;;;;;;;;;6255478;28;20044;-60
2023/06/19 01:32:05;;;;;;;29.65;15.45;;;;;;;;;;6256715;28;20041;-59
2023/06/19 01:35:09;;;;;;;24.63;15.02;;;;;;;;;;6256637;28;20500;-60
2023/06/19 01:38:12;;;;;;;25.75;15.23;;;;;;;;;;6256579;28;20049;-59
2023/06/19 01:41:15;;;;;;;25.23;15.05;;;;;;;;;;6255430;28;20120;-59
2023/06/19 01:44:16;;;;;;;22.80;14.85;;;;;;;;;;6257107;28;20041;-59
2023/06/19 01:47:19;;;;;;;24.15;14.30;;;;;;;;;;6255483;28;20855;-59
2023/06/19 01:50:24;;;;;;;25.02;15.57;;;;;;;;;;6256520;28;20041;-58
2023/06/19 01:53:24;;;;;;;29.60;15.40;;;;;;;;;;6255434;28;20077;-58
2023/06/19 01:56:25;;;;;;;25.25;15.65;;;;;;;;;;6258115;28;20079;-59
2023/06/19 01:59:26;;;;;;;26.73;15.03;;;;;;;;;;6257207;28;20060;-59
2023/06/19 02:02:27;;;;;;;27.60;15.75;;;;;;;;;;6254875;28;20598;-58
2023/06/19 02:05:27;;;;;;;25.98;15.35;;;;;;;;;;6254544;28;20037;-57
2023/06/19 02:08:28;;;;;;;24.00;15.40;;;;;;;;;;6257090;28;20102;-58
2023/06/19 02:11:28;;;;;;;23.75;14.52;;;;;;;;;;6256594;28;20098;-58
2023/06/19 02:14:29;;;;;;;22.77;14.30;;;;;;;;;;6256283;28;20053;-59
2023/06/19 02:17:29;;;;;;;23.88;14.73;;;;;;;;;;6255331;28;20041;-59
2023/06/19 02:20:30;;;;;;;24.85;15.85;;;;;;;;;;6257900;28;20064;-59
2023/06/19 02:23:30;;;;;;;25.55;14.60;;;;;;;;;;6255087;28;20568;-59
2023/06/19 02:26:31;;;;;;;25.20;15.93;;;;;;;;;;6255006;28;20041;-59
2023/06/19 02:29:33;;;;;;;27.20;15.38;;;;;;;;;;6254811;28;20057;-59
2023/06/19 02:32:34;;;;;;;;;;;;;;;;;;6255313;28;20045;-59
2023/06/19 02:35:34;;;;;;;26.38;15.90;;;;;;;;;;6257437;28;19928;-59
2023/06/19 02:38:35;;;;;;;28.60;16.30;;;;;;;;;;6252349;28;20080;-60
2023/06/19 02:41:38;;;;;;;29.15;17.10;;;;;;;;;;6255352;28;20053;-58
2023/06/19 02:44:38;;;;;;;32.92;18.30;;;;;;;;;;6254866;28;20047;-60
2023/06/19 02:47:39;;;;;;;31.42;17.08;;;;;;;;;;6254452;28;20040;-60
2023/06/19 02:50:39;;;;;;;32.03;17.48;;;;;;;;;;6255823;28;20060;-60
2023/06/19 02:53:41;;;;;;;29.77;17.30;;;;;;;;;;6258791;28;20048;-59
2023/06/19 02:56:42;;;;;;;;;;;;;;;;;;6255021;28;20045;-59
2023/06/19 02:59:42;;;;;;;26.95;16.38;;;;;;;;;;6255397;28;20448;-60
2023/06/19 03:02:48;;;;;;;34.17;19.58;;;;;;;;;;6254506;28;20107;-59
2023/06/19 03:05:48;;;;;;;30.92;17.80;;;;;;;;;;6253347;28;20495;-60
2023/06/19 03:08:49;;;;;;;30.30;17.15;;;;;;;;;;6253558;28;20194;-60
2023/06/19 03:11:49;;;;;;;32.05;17.70;;;;;;;;;;6258607;28;21334;-59
2023/06/19 03:14:50;;;;;;;31.80;17.77;;;;;;;;;;6253495;28;20039;-59
2023/06/19 03:17:54;;;;;;;32.90;18.02;;;;;;;;;;6251396;28;20037;-60
2023/06/19 03:20:55;;;;;;;36.90;19.15;;;;;;;;;;6253627;28;20051;-60
2023/06/19 03:23:56;;;;;;;40.05;20.55;;;;;;;;;;6253706;28;20508;-58
2023/06/19 03:26:56;;;;;;;36.13;20.90;;;;;;;;;;6252386;28;20048;-60
2023/06/19 03:29:57;;;;;;;39.65;20.60;;;;;;;;;;6252841;28;20072;-60
2023/06/19 03:32:58;;;;;;;34.95;20.27;;;;;;;;;;6254814;28;20053;-59
2023/06/19 03:35:58;;;;;;;32.42;18.63;;;;;;;;;;6253970;28;20048;-59
2023/06/19 03:38:59;;;;;;;30.77;17.60;;;;;;;;;;6255008;28;20493;-60
2023/06/19 03:41:59;;;;;;;31.38;18.30;;;;;;;;;;6254323;28;20041;-60
2023/06/19 03:45:00;;;;;;;32.58;18.38;;;;;;;;;;6252931;28;20120;-60
2023/06/19 03:48:00;;;;;;;30.73;18.52;;;;;;;;;;6256593;28;20049;-60
2023/06/19 03:51:01;;;;;;;30.30;18.40;;;;;;;;;;6256053;28;20037;-59
2023/06/19 03:54:01;;;;;;;34.78;20.17;;;;;;;;;;6259053;28;20049;-59
2023/06/19 03:57:03;;;;;;;37.15;20.45;;;;;;;;;;6256851;28;20111;-60
2023/06/19 04:00:07;;;;;;;35.22;19.90;;;;;;;;;;6259002;28;20528;-58
2023/06/19 04:03:09;;;;;;;38.72;21.17;;;;;;;;;;6261990;28;20072;-59
2023/06/19 04:06:09;;;;;;;38.38;21.70;;;;;;;;;;6258757;28;20416;-59
2023/06/19 04:09:10;;;;;;;40.55;22.77;;;;;;;;;;6265879;28;20139;-59
2023/06/19 04:12:11;;;;;;;36.00;21.33;;;;;;;;;;6266515;28;20400;-58
2023/06/19 04:15:11;;;;;;;38.67;21.48;;;;;;;;;;6264162;28;20067;-59
2023/06/19 04:18:12;;;;;;;36.33;21.75;;;;;;;;;;6259276;28;20130;-59
2023/06/19 04:21:14;;;;;;;40.08;22.88;;;;;;;;;;6262655;28;20072;-60
2023/06/19 04:24:14;;;;;;;39.45;22.88;;;;;;;;;;6264945;28;20060;-59
2023/06/19 04:27:15;;;;;;;39.47;21.85;;;;;;;;;;6261287;28;20489;-60
2023/06/19 04:30:15;;;;;;;40.85;22.15;;;;;;;;;;6263508;28;20041;-59
2023/06/19 04:33:16;;;;;;;40.17;24.38;;;;;;;;;;6263371;28;20142;-59
2023/06/19 04:36:16;;;;;;;37.72;23.50;;;;;;;;;;6264072;28;20059;-57
2023/06/19 04:39:17;;;;;;;41.33;24.02;;;;;;;;;;6264429;28;20041;-59
2023/06/19 04:42:21;;;;;;;46.85;26.20;;;;;;;;;;6263603;28;20041;-58
2023/06/19 04:45:22;;;;;;;43.47;25.27;;;;;;;;;;6263752;28;20135;-59
2023/06/19 04:48:24;;;;;;;43.20;25.27;;;;;;;;;;6265059;28;20051;-60
2023/06/19 04:51:26;;;;;;;42.15;24.95;;;;;;;;;;6265188;28;20044;-60
2023/06/19 04:54:26;;;;;;;43.70;25.37;;;;;;;;;;6264262;28;20033;-60
2023/06/19 04:57:27;;;;;;;41.97;25.95;;;;;;;;;;6264580;28;20037;-59
2023/06/19 05:00:28;;;;;;;47.45;25.27;;;;;;;;;;6261582;28;20053;-59
2023/06/19 05:03:28;;;;;;;46.58;26.15;;;;;;;;;;6262769;28;20484;-59
2023/06/19 05:06:29;;;;;;;41.80;23.67;;;;;;;;;;6256075;28;20049;-58
2023/06/19 05:09:29;;;;;;;43.45;25.95;;;;;;;;;;6259260;28;20064;-58
2023/06/19 05:12:30;;;;;;;45.65;25.70;;;;;;;;;;6259307;28;20045;-58
2023/06/19 05:15:31;;;;;;;42.78;26.05;;;;;;;;;;6257092;28;20045;-60
2023/06/19 05:18:31;;;;;;;44.33;24.75;;;;;;;;;;6259778;28;20504;-59
2023/06/19 05:21:32;;;;;;;41.40;23.13;;;;;;;;;;6262287;28;20124;-60
2023/06/19 05:24:33;;;;;;;48.60;25.30;;;;;;;;;;6259019;28;20488;-60
2023/06/19 05:27:34;;;;;;;41.25;24.48;;;;;;;;;;6258229;28;20503;-59
2023/06/19 05:30:34;;;;;;;40.63;23.83;;;;;;;;;;6258735;28;20052;-59
2023/06/19 05:33:35;;;;;;;38.07;23.47;;;;;;;;;;6255265;28;20144;-60
2023/06/19 05:36:36;;;;;;;43.93;24.07;;;;;;;;;;6255178;28;20485;-59
2023/06/19 05:39:36;;;;;;;40.87;24.60;;;;;;;;;;6257873;28;20052;-59
2023/06/19 05:42:37;;;;;;;40.63;23.10;;;;;;;;;;6256847;28;20049;-59
2023/06/19 05:45:37;;;;;;;38.17;22.25;;;;;;;;;;6257535;28;20428;-59
2023/06/19 05:48:38;;;;;;;38.30;23.23;;;;;;;;;;6261430;28;20036;-60
2023/06/19 05:51:39;;;;;;;37.37;21.83;;;;;;;;;;6256155;28;20129;-60
2023/06/19 05:54:39;;;;;;;38.63;22.17;;;;;;;;;;6258068;28;20037;-59
2023/06/19 05:57:40;;;;;;;38.53;22.23;;;;;;;;;;6257057;28;20041;-59
2023/06/19 06:00:41;;;;;;;35.40;21.07;;;;;;;;;;6256432;28;20064;-60
2023/06/19 06:03:41;;;;;;;36.50;21.57;;;;;;;;;;6256059;28;20504;-60
2023/06/19 06:06:42;;;;;;;33.13;21.47;;;;;;;;;;6259103;28;20044;-60
2023/06/19 06:09:42;;;;;;;37.73;20.77;;;;;;;;;;6258787;28;20048;-59
2023/06/19 06:12:43;;;;;;;33.40;18.37;;;;;;;;;;6258794;28;20401;-59
2023/06/19 06:15:44;;;;;;;28.13;17.70;;;;;;;;;;6256830;28;21633;-60
2023/06/19 06:18:45;;;;;;;30.40;17.67;;;;;;;;;;6257844;28;20412;-60
2023/06/19 06:21:46;;;;;;;29.42;17.30;;;;;;;;;;6256844;28;20045;-59
2023/06/19 06:24:47;;;;;;;30.57;18.10;;;;;;;;;;6256354;28;20678;-59
2023/06/19 06:27:47;;;;;;;26.17;16.57;;;;;;;;;;6258234;28;20887;-60
2023/06/19 06:30:48;;;;;;;30.27;17.77;;;;;;;;;;6256627;28;20036;-59
2023/06/19 06:33:49;;;;;;;31.53;17.53;;;;;;;;;;6256897;28;20075;-59
2023/06/19 06:36:49;;;;;;;26.57;17.20;;;;;;;;;;6254036;28;20041;-60
2023/06/19 06:39:50;;;;;;;29.70;17.37;;;;;;;;;;6255667;28;20193;-60
2023/06/19 06:42:50;;;;;;;31.80;18.10;;;;;;;;;;6257532;28;20060;-60
2023/06/19 06:45:51;;;;;;;28.20;16.50;;;;;;;;;;6258166;28;20052;-59
2023/06/19 06:48:52;;;;;;;26.63;16.13;;;;;;;;;;6257365;28;20068;-60
2023/06/19 06:51:52;;;;;;;25.60;15.80;;;;;;;;;;6257506;28;20256;-60
2023/06/19 06:54:53;;;;;;;25.07;15.60;;;;;;;;;;6256674;28;20123;-60
2023/06/19 06:57:54;;;;;;;25.98;15.88;;;;;;;;;;6257146;28;20836;-60
2023/06/19 07:00:55;;;;;;;24.23;14.20;;;;;;;;;;6256121;28;20048;-59
2023/06/19 07:03:56;;;;;;;28.02;17.00;;;;;;;;;;6254864;28;20408;-60
2023/06/19 07:06:58;;;;;;;30.37;16.60;;;;;;;;;;6256640;28;20726;-60
2023/06/19 07:09:58;;;;;;;26.90;16.42;;;;;;;;;;6256769;28;20049;-60
2023/06/19 07:12:59;;;;;;;27.60;16.07;;;;;;;;;;6254765;28;20497;-60
2023/06/19 07:16:01;;;;;;;24.87;15.00;;;;;;;;;;6256060;28;20056;-60
2023/06/19 07:19:01;;;;;;;29.65;15.35;;;;;;;;;;6258012;28;20049;-60
2023/06/19 07:22:02;;;;;;;25.37;16.10;;;;;;;;;;6255547;28;20709;-60
2023/06/19 07:25:04;;;;;;;24.67;15.03;;;;;;;;;;6253171;28;20045;-60
2023/06/19 07:28:04;;;;;;;;;;;;;;;;;;6258502;28;20056;-60
2023/06/19 07:31:05;;;;;;;19.95;13.05;;;;;;;;;;6256905;28;20235;-61
2023/06/19 07:34:06;;;;;;;20.13;13.33;;;;;;;;;;6254256;28;20115;-60
2023/06/19 07:37:07;;;;;;;22.77;14.00;;;;;;;;;;6255550;28;20504;-60
2023/06/19 07:40:08;;;;;;;24.53;12.93;;;;;;;;;;6256485;28;20067;-60
2023/06/19 07:43:09;;;;;;;19.30;12.95;;;;;;;;;;6254668;28;20139;-61
2023/06/19 07:46:10;;;;;;;21.27;12.37;;;;;;;;;;6253748;28;20069;-60
2023/06/19 07:49:10;;;;;;;19.03;12.40;;;;;;;;;;6256293;28;20041;-60
2023/06/19 07:52:11;;;;;;;19.70;12.10;;;;;;;;;;6256120;28;20049;-60
2023/06/19 07:55:12;;;;;;;21.07;12.90;;;;;;;;;;6255483;28;20045;-60
2023/06/19 07:58:13;;;;;;;19.60;12.33;;;;;;;;;;6256706;28;20055;-60
2023/06/19 08:01:13;;;;;;;19.07;12.43;;;;;;;;;;6256125;28;20045;-59
2023/06/19 08:04:14;;;;;;;19.33;13.43;;;;;;;;;;6253661;28;20033;-60
2023/06/19 08:07:15;;;;;;;19.37;12.63;;;;;;;;;;6254384;28;20152;-60
2023/06/19 08:10:15;;;;;;;19.20;12.43;;;;;;;;;;6251959;28;20314;-60
2023/06/19 08:13:16;;;;;;;21.90;13.47;;;;;;;;;;6251558;28;20534;-60
2023/06/19 08:16:17;;;;;;;19.63;12.87;;;;;;;;;;6255005;28;20077;-60
2023/06/19 08:19:18;;;;;;;23.67;13.45;;;;;;;;;;6254229;28;20071;-60
2023/06/19 08:22:19;;;;;;;21.93;13.70;;;;;;;;;;6250159;28;20072;-60
2023/06/19 08:25:19;;;;;;;21.50;13.93;;;;;;;;;;6245154;28;20127;-60
2023/06/19 08:28:20;;;;;;;18.80;12.97;;;;;;;;;;6246726;28;20248;-60
2023/06/19 08:31:26;;;;;;;19.53;13.67;;;;;;;;;;6245080;28;20435;-61
2023/06/19 08:34:28;;;;;;;19.95;13.32;;;;;;;;;;6243909;28;20116;-60
2023/06/19 08:37:28;;;;;;;21.37;14.03;;;;;;;;;;6248083;28;20052;-60
2023/06/19 08:40:29;;;;;;;17.75;12.77;;;;;;;;;;6251766;28;20053;-61
2023/06/19 08:43:30;;;;;;;22.50;13.70;;;;;;;;;;6247496;28;20044;-60
2023/06/19 08:46:30;;;;;;;20.77;12.87;;;;;;;;;;6254503;28;20189;-59
2023/06/19 08:49:34;;;;;;;18.27;13.03;;;;;;;;;;6251509;28;20068;-59
2023/06/19 08:52:34;;;;;;;20.98;13.32;;;;;;;;;;6250634;28;20049;-60
2023/06/19 08:55:35;;;;;;;20.60;13.33;;;;;;;;;;6248670;28;20056;-60
2023/06/19 08:58:37;;;;;;;20.17;13.40;;;;;;;;;;6249239;28;20060;-60
2023/06/19 09:01:38;;;;;;;18.60;12.38;;;;;;;;;;6251161;28;20056;-60
2023/06/19 09:04:39;;;;;;;17.90;12.68;;;;;;;;;;6245295;28;20516;-61
2023/06/19 09:07:39;;;;;;;17.90;12.43;;;;;;;;;;6250744;28;20075;-60
2023/06/19 09:10:40;;;;;;;20.70;13.83;;;;;;;;;;6253264;28;20087;-60
2023/06/19 09:13:40;;;;;;;17.53;12.63;;;;;;;;;;6246042;28;20397;-61
2023/06/19 09:16:42;;;;;;;19.07;12.73;;;;;;;;;;6248000;28;20140;-61
2023/06/19 09:19:53;;;;;;;20.13;13.70;;;;;;;;;;6252917;28;20049;-61
2023/06/19 09:22:58;;;;;;;17.95;13.13;;;;;;;;;;6247177;28;20053;-61
2023/06/19 09:25:58;;;;;;;20.50;13.52;;;;;;;;;;6247201;28;20061;-61
2023/06/19 09:29:10;;;;;;;20.45;12.88;;;;;;;;;;6248450;28;20057;-61
2023/06/19 09:32:22;;;;;;;19.90;13.70;;;;;;;;;;6248867;28;20135;-61
2023/06/19 09:35:22;;;;;;;;;;;;;;;;;;6247827;28;20037;-60
2023/06/19 09:38:28;;;;;;;18.60;13.07;;;;;;;;;;6247883;28;19931;-61
2023/06/19 09:41:30;;;;;;;20.85;13.65;;;;;;;;;;6248700;28;20055;-60
2023/06/19 09:44:31;;;;;;;;;;;;;;;;;;6245840;28;20057;-59
2023/06/19 09:47:41;;;;;;;17.95;13.25;;;;;;;;;;6244832;28;19935;-60
2023/06/19 09:50:42;;;;;;;22.98;14.43;;;;;;;;;;6247151;28;20055;-58
2023/06/19 09:53:50;;;;;;;19.63;14.07;;;;;;;;;;6246073;28;20056;-60
2023/06/19 09:56:55;;;;;;;19.73;13.70;;;;;;;;;;6245576;28;20049;-59
2023/06/19 09:59:58;;;;;;;20.27;13.75;;;;;;;;;;6248407;28;20071;-59
2023/06/19 10:03:00;;;;;;;18.38;13.02;;;;;;;;;;6245739;28;20048;-59
2023/06/19 10:06:02;;;;;;;20.10;14.70;;;;;;;;;;6247037;28;20649;-60
2023/06/19 10:09:08;;;;;;;17.90;13.35;;;;;;;;;;6245410;28;20484;-60
2023/06/19 10:12:12;;;;;;;17.27;13.13;;;;;;;;;;6245569;28;20056;-61
2023/06/19 10:15:15;;;;;;;19.10;13.68;;;;;;;;;;6248919;28;20084;-59
2023/06/19 10:18:18;;;;;;;19.23;13.50;;;;;;;;;;6245931;28;20045;-59
2023/06/19 10:21:20;;;;;;;20.77;13.68;;;;;;;;;;6248696;28;20609;-60
2023/06/19 10:24:24;;;;;;;19.70;13.93;;;;;;;;;;6245884;28;20061;-60
2023/06/19 10:27:25;;;;;;;21.05;13.73;;;;;;;;;;6245899;28;20048;-60
2023/06/19 10:30:26;;;;;;;21.25;13.73;;;;;;;;;;6246582;28;20852;-59
2023/06/19 10:33:29;;;;;;;17.50;13.73;;;;;;;;;;6243205;28;20186;-60
2023/06/19 10:36:30;;;;;;;19.45;13.95;;;;;;;;;;6246901;28;20132;-60
2023/06/19 10:39:30;;;;;;;20.37;13.90;;;;;;;;;;6247443;28;20432;-60
2023/06/19 10:42:31;;;;;;;20.07;13.73;;;;;;;;;;6244543;28;20045;-58
2023/06/19 10:45:32;;;;;;;20.53;14.30;;;;;;;;;;6247839;28;20628;-60
2023/06/19 10:48:33;;;;;;;19.33;13.20;;;;;;;;;;6243650;28;20044;-60
2023/06/19 10:51:34;;;;;;;18.60;12.83;;;;;;;;;;6246242;28;20467;-59
2023/06/19 10:54:35;;;;;;;20.70;13.68;;;;;;;;;;6246526;28;20094;-59
2023/06/19 10:57:36;;;;;;;19.53;13.80;;;;;;;;;;6246251;28;20407;-59
2023/06/19 11:00:37;;;;;;;18.27;12.20;;;;;;;;;;6245103;28;20484;-59
2023/06/19 11:03:37;;;;;;;19.00;12.60;;;;;;;;;;6244589;28;20646;-59
2023/06/19 11:06:40;;;;;;;17.90;13.20;;;;;;;;;;6245078;28;20044;-59
2023/06/19 11:09:40;;;;;;;21.20;12.75;;;;;;;;;;6245327;28;20044;-59
2023/06/19 11:12:43;;;;;;;18.93;13.20;;;;;;;;;;6245205;28;20148;-59
2023/06/19 11:15:44;;;;;;;18.40;13.15;;;;;;;;;;6245492;28;20095;-58
2023/06/19 11:18:44;;;;;;;;;;;;;;;;;;6243142;28;22580;-60
2023/06/19 11:21:54;;;;;;;18.70;13.13;;;;;;;;;;6244887;28;19929;-59
2023/06/19 11:25:02;;;;;;;20.88;12.95;;;;;;;;;;6242625;28;20061;-59
2023/06/19 11:28:14;;;;;;;17.73;13.23;;;;;;;;;;6243731;28;20088;-58
2023/06/19 11:31:15;;;;;;;23.15;14.32;;;;;;;;;;6245616;28;20123;-59
2023/06/19 11:34:17;;;;;;;20.27;13.37;;;;;;;;;;6241911;28;21035;-59
2023/06/19 11:37:18;;;;;;;18.83;13.30;;;;;;;;;;6246804;28;20045;-59
2023/06/19 11:40:22;;;;;;;19.02;13.15;;;;;;;;;;6244980;28;20607;-59
2023/06/19 11:43:28;;;;;;;18.00;13.20;;;;;;;;;;6243661;28;20480;-59
2023/06/19 11:46:33;;;;;;;17.60;13.07;;;;;;;;;;6247446;28;20484;-58
2023/06/19 11:49:36;;;;;;;22.52;13.63;;;;;;;;;;6244639;28;20136;-59
2023/06/19 11:52:38;;;;;;;20.58;13.43;;;;;;;;;;6242352;28;20083;-59
2023/06/19 11:55:38;;;;;;;20.25;13.40;;;;;;;;;;6244334;28;20660;-59
2023/06/19 11:58:39;;;;;;;19.37;13.47;;;;;;;;;;6244548;28;20045;-59
2023/06/19 12:01:40;;;;;;;17.97;12.67;;;;;;;;;;6244437;28;20061;-59
2023/06/19 12:04:40;;;;;;;21.50;14.15;;;;;;;;;;6244263;28;20701;-58
2023/06/19 12:07:41;;;;;;;21.57;13.43;;;;;;;;;;6246521;28;20044;-60
2023/06/19 12:10:42;;;;;;;21.27;14.10;;;;;;;;;;6247583;28;20048;-58
2023/06/19 12:13:43;;;;;;;22.30;13.82;;;;;;;;;;6249662;28;20053;-60
2023/06/19 12:16:45;;;;;;;22.88;14.35;;;;;;;;;;6253158;28;20041;-59
2023/06/19 12:19:46;;;;;;;21.02;14.93;;;;;;;;;;6248394;28;20049;-60
2023/06/19 12:22:46;;;;;;;18.73;12.63;;;;;;;;;;6247021;28;20866;-58
2023/06/19 12:25:47;;;;;;;20.97;12.70;;;;;;;;;;6248210;28;20053;-60
2023/06/19 12:28:47;;;;;;;18.97;12.23;;;;;;;;;;6246323;28;21049;-59
2023/06/19 12:31:48;;;;;;;20.10;12.73;;;;;;;;;;6248361;28;20471;-57
2023/06/19 12:34:53;;;;;;;23.90;13.00;;;;;;;;;;6250709;28;20306;-58
2023/06/19 12:37:54;;;;;;;19.88;13.30;;;;;;;;;;6248561;28;20306;-60
2023/06/19 12:40:55;;;;;;;17.80;13.15;;;;;;;;;;6249085;28;20041;-60
2023/06/19 12:43:56;;;;;;;20.25;12.55;;;;;;;;;;6247891;28;20072;-59
2023/06/19 12:46:58;;;;;;;19.10;13.00;;;;;;;;;;6248477;28;20087;-59
2023/06/19 12:49:59;;;;;;;17.45;12.80;;;;;;;;;;6248637;28;20110;-59
2023/06/19 12:52:59;;;;;;;31.17;13.90;;;;;;;;;;6248208;28;20045;-59
2023/06/19 12:56:00;;;;;;;20.42;13.10;;;;;;;;;;6249273;28;20134;-61
2023/06/19 12:59:01;;;;;;;22.83;12.77;;;;;;;;;;6249147;28;20048;-59
2023/06/19 13:02:02;;;;;;;19.10;12.15;;;;;;;;;;6248573;28;20100;-58
2023/06/19 13:05:02;;;;;;;17.20;11.70;;;;;;;;;;6250036;28;20052;-60
2023/06/19 13:08:03;;;;;;;17.55;12.43;;;;;;;;;;6246041;28;20052;-60
2023/06/19 13:11:04;;;;;;;19.13;12.85;;;;;;;;;;6246092;28;20053;-59
2023/06/19 13:14:04;;;;;;;17.05;12.07;;;;;;;;;;6246677;28;20052;-59
2023/06/19 13:17:06;;;;;;;18.60;12.20;;;;;;;;;;6248694;28;20073;-60
2023/06/19 13:20:06;;;;;;;;;;;;;;;;;;6247538;28;20059;-60
2023/06/19 13:23:08;;;;;;;17.60;12.27;;;;;;;;;;6246651;28;20434;-60
2023/06/19 13:26:09;;;;;;;16.38;12.45;;;;;;;;;;6248482;28;20048;-60
2023/06/19 13:29:11;;;;;;;16.65;11.65;;;;;;;;;;6248079;28;20052;-60
2023/06/19 13:32:12;;;;;;;16.70;11.07;;;;;;;;;;6247994;28;20082;-59
2023/06/19 13:35:12;;;;;;;15.10;11.90;;;;;;;;;;6249492;28;20052;-59
2023/06/19 13:38:15;;;;;;;14.57;10.93;;;;;;;;;;6248996;28;20048;-59
2023/06/19 13:41:16;;;;;;;17.95;11.57;;;;;;;;;;6247172;28;20389;-60
2023/06/19 13:44:17;;;;;;;17.75;11.52;;;;;;;;;;6246266;28;20049;-60
2023/06/19 13:47:17;;;;;;;18.80;11.90;;;;;;;;;;6246925;28;20060;-59
2023/06/19 13:50:18;;;;;;;21.48;11.65;;;;;;;;;;6245660;28;20401;-60
2023/06/19 13:53:19;;;;;;;18.75;11.30;;;;;;;;;;6245142;28;20041;-59
2023/06/19 13:56:20;;;;;;;16.17;11.25;;;;;;;;;;6248269;28;20045;-59
2023/06/19 13:59:20;;;;;;;18.63;12.63;;;;;;;;;;6247220;28;20056;-59
2023/06/19 14:02:21;;;;;;;15.55;11.35;;;;;;;;;;6248698;28;20049;-59
2023/06/19 14:05:21;;;;;;;16.20;11.57;;;;;;;;;;6246582;28;20107;-60
2023/06/19 14:08:23;;;;;;;15.52;11.23;;;;;;;;;;6247805;28;20044;-60
2023/06/19 14:11:24;;;;;;;15.88;11.23;;;;;;;;;;6246432;28;20659;-60
2023/06/19 14:14:25;;;;;;;19.38;11.57;;;;;;;;;;6244860;28;20053;-60
2023/06/19 14:17:26;;;;;;;19.27;11.90;;;;;;;;;;6245835;28;20053;-57
2023/06/19 14:20:26;;;;;;;17.70;11.60;;;;;;;;;;6247373;28;20060;-60
2023/06/19 14:23:27;;;;;;;17.70;12.17;;;;;;;;;;6246075;28;20481;-61
2023/06/19 14:26:27;;;;;;;16.58;12.18;;;;;;;;;;6247623;28;20048;-59
2023/06/19 14:29:28;;;;;;;15.13;11.63;;;;;;;;;;6246756;28;20040;-59
2023/06/19 14:32:29;;;;;;;18.10;12.18;;;;;;;;;;6247002;28;20477;-59
2023/06/19 14:35:29;;;;;;;17.63;11.38;;;;;;;;;;6247120;28;20045;-62
2023/06/19 14:38:33;;;;;;;15.18;11.25;;;;;;;;;;6250731;28;20041;-60
2023/06/19 14:41:34;;;;;;;16.63;10.55;;;;;;;;;;6246035;28;20128;-60
2023/06/19 14:44:34;;;;;;;16.13;11.07;;;;;;;;;;6247809;28;20064;-61
2023/06/19 14:47:35;;;;;;;16.90;11.50;;;;;;;;;;6245706;28;20057;-58
2023/06/19 14:50:35;;;;;;;14.23;11.07;;;;;;;;;;6245620;28;20060;-61
2023/06/19 14:53:36;;;;;;;17.07;10.73;;;;;;;;;;6245673;28;20049;-61
2023/06/19 14:56:37;;;;;;;15.57;11.20;;;;;;;;;;6244269;28;20111;-61
2023/06/19 14:59:37;;;;;;;15.67;10.50;;;;;;;;;;6242980;28;20068;-60
2023/06/19 15:02:38;;;;;;;15.25;10.38;;;;;;;;;;6245003;28;20318;-60
2023/06/19 15:05:39;;;;;;;14.93;10.77;;;;;;;;;;6247473;28;20037;-59
2023/06/19 15:08:39;;;;;;;14.30;10.75;;;;;;;;;;6246391;28;20472;-60
2023/06/19 15:11:40;;;;;;;15.23;10.67;;;;;;;;;;6248209;28;20106;-60
2023/06/19 15:14:41;;;;;;;18.85;12.65;;;;;;;;;;6239135;28;20581;-61
2023/06/19 15:17:41;;;;;;;20.05;11.88;;;;;;;;;;6246140;28;20052;-60
2023/06/19 15:20:42;;;;;;;17.40;11.73;;;;;;;;;;6247061;28;20051;-60
2023/06/19 15:23:43;;;;;;;16.48;11.55;;;;;;;;;;6249710;28;20126;-60
2023/06/19 15:26:43;;;;;;;18.42;12.82;;;;;;;;;;6251679;28;20057;-60
2023/06/19 15:29:44;;;;;;;20.08;11.40;;;;;;;;;;6252061;28;20045;-59
2023/06/19 15:32:45;;;;;;;16.90;11.05;;;;;;;;;;6248488;28;20081;-60
2023/06/19 15:35:47;;;;;;;15.37;10.60;;;;;;;;;;6253631;28;20162;-59
2023/06/19 15:38:48;;;;;;;17.27;11.45;;;;;;;;;;6254232;28;20293;-61
2023/06/19 15:41:49;;;;;;;17.43;12.07;;;;;;;;;;6253627;28;20420;-60
2023/06/19 15:44:50;;;;;;;17.40;11.63;;;;;;;;;;6253982;28;20440;-59
2023/06/19 15:47:50;;;;;;;19.27;12.07;;;;;;;;;;6259100;28;20448;-60
2023/06/19 15:50:51;;;;;;;16.33;11.55;;;;;;;;;;6259380;28;20293;-60
2023/06/19 15:53:52;;;;;;;16.80;11.80;;;;;;;;;;6258716;28;20497;-59
2023/06/19 15:56:52;;;;;;;17.40;12.07;;;;;;;;;;6259559;28;20488;-60
2023/06/19 15:59:53;;;;;;;16.87;11.37;;;;;;;;;;6259243;28;20479;-61
2023/06/19 16:02:53;;;;;;;18.42;13.23;;;;;;;;;;6258226;28;20500;-59
2023/06/19 16:05:54;;;;;;;20.15;13.52;;;;;;;;;;6259213;28;20492;-60
2023/06/19 16:08:56;;;;;;;19.15;13.20;;;;;;;;;;6258354;28;20067;-60
2023/06/19 16:11:57;;;;;;;17.98;13.15;;;;;;;;;;6257662;28;20053;-60
2023/06/19 16:14:57;;;;;;;20.67;13.45;;;;;;;;;;6259093;28;20720;-61
2023/06/19 16:17:58;;;;;;;19.93;13.63;;;;;;;;;;6257750;28;20045;-60
2023/06/19 16:20:59;;;;;;;18.20;12.60;;;;;;;;;;6258893;28;20305;-60
2023/06/19 16:23:59;;;;;;;18.58;12.95;;;;;;;;;;6257217;28;20053;-60
2023/06/19 16:27:00;;;;;;;20.13;12.68;;;;;;;;;;6254411;28;20045;-61
2023/06/19 16:30:02;;;;;;;16.05;12.32;;;;;;;;;;6256554;28;20040;-60
2023/06/19 16:33:03;;;;;;;20.00;11.90;;;;;;;;;;6255667;28;20195;-60
2023/06/19 16:36:03;;;;;;;;;;;;;;;;;;6256935;28;20049;-60
2023/06/19 16:39:04;;;;;;;17.45;11.73;;;;;;;;;;6256339;28;20489;-60
2023/06/19 16:42:05;;;;;;;21.20;15.02;;;;;;;;;;6255616;28;20041;-60
2023/06/19 16:45:06;;;;;;;22.80;15.07;;;;;;;;;;6256261;28;20045;-56
2023/06/19 16:48:07;;;;;;;;;;;;;;;;;;6256449;28;20056;-59
2023/06/19 16:51:07;;;;;;;22.23;14.33;;;;;;;;;;6257577;28;19935;-61
2023/06/19 16:54:08;;;;;;;19.87;14.03;;;;;;;;;;6254868;28;20055;-59
2023/06/19 16:57:08;;;;;;;21.83;14.30;;;;;;;;;;6255213;28;20352;-60
2023/06/19 17:00:10;;;;;;;24.57;14.80;;;;;;;;;;6254633;28;20045;-61
2023/06/19 17:03:12;;;;;;;20.85;15.35;;;;;;;;;;6254671;28;20061;-60
2023/06/19 17:06:13;;;;;;;24.52;16.10;;;;;;;;;;6252486;28;20106;-60
2023/06/19 17:09:13;;;;;;;23.90;16.80;;;;;;;;;;6253150;28;20694;-61
2023/06/19 17:12:14;;;;;;;22.98;15.88;;;;;;;;;;6253198;28;20067;-60
2023/06/19 17:15:17;;;;;;;26.15;16.65;;;;;;;;;;6255438;28;20049;-60
2023/06/19 17:18:17;;;;;;;20.58;15.35;;;;;;;;;;6254141;28;20052;-61
2023/06/19 17:21:18;;;;;;;22.00;15.57;;;;;;;;;;6255060;28;20568;-60
2023/06/19 17:24:20;;;;;;;27.63;16.17;;;;;;;;;;6253827;28;20057;-59
2023/06/19 17:27:20;;;;;;;22.83;15.30;;;;;;;;;;6251006;28;20052;-60
2023/06/19 17:30:21;;;;;;;21.45;15.27;;;;;;;;;;6253868;28;20044;-59
2023/06/19 17:33:22;;;;;;;22.67;15.52;;;;;;;;;;6252612;28;21440;-58
2023/06/19 17:36:23;;;;;;;22.90;15.90;;;;;;;;;;6253717;28;20045;-57
2023/06/19 17:39:23;;;;;;;24.30;14.95;;;;;;;;;;6253756;28;20413;-57